Time;durP1;ratioP1;P1;durP2;ratioP2;P2;SDS_P1;SDS_P2;PMS_P1;PMS_P2;Temp;Humidity;BMP_temperature;BMP_pressure;BME280_temperature;BME280_humidity;BME280_pressure;Samples;Min_cycle;Max_cycle;Signal;HPM_P1;HPM_P2
2022/05/05 00:01:36;;;;;;;;;;;11.70;99.90;;;;;;5018874;28;19948;-72
2022/05/05 00:04:03;;;;;;;;;;;11.70;99.90;;;;;;5006090;28;19932;-72
2022/05/05 00:06:35;;;;;;;;;;;11.70;99.90;;;;;;5008107;28;19929;-71
2022/05/05 00:09:07;;;;;;;;;;;11.70;99.90;;;;;;5004013;28;19926;-72
2022/05/05 00:14:32;;;;;;;;;;;11.70;99.90;;;;;;5008531;28;19929;-72
2022/05/05 00:17:08;;;;;;;;;;;11.70;99.90;;;;;;5020334;28;19964;-72
2022/05/05 00:19:41;;;;;;;;;;;11.70;99.90;;;;;;5002160;28;19930;-72
2022/05/05 00:22:13;;;;;;;;;;;11.70;99.90;;;;;;5021935;28;20390;-72
2022/05/05 00:24:44;;;;;;;;;;;11.60;99.90;;;;;;5006077;28;19925;-72
2022/05/05 00:27:16;;;;;;;;;;;11.60;99.90;;;;;;5004789;28;19925;-72
2022/05/05 00:29:48;;;;;;;;;;;11.60;99.90;;;;;;5003953;28;19999;-72
2022/05/05 00:32:20;;;;;;;;;;;11.60;99.90;;;;;;5001046;28;19929;-72
2022/05/05 00:34:52;;;;;;;;;;;11.50;99.90;;;;;;4988963;28;19926;-72
2022/05/05 00:37:23;;;;;;;;;;;11.50;99.90;;;;;;5006822;28;20578;-72
2022/05/05 00:39:55;;;;;;;;;;;11.50;99.90;;;;;;5005410;28;20341;-72
2022/05/05 00:42:26;;;;;;;;;;;11.40;99.90;;;;;;5003641;28;20029;-72
2022/05/05 00:44:59;;;;;;;;;;;11.30;99.90;;;;;;5008075;28;19940;-72
2022/05/05 00:47:26;;;;;;;;;;;11.20;99.90;;;;;;5008346;28;20507;-72
2022/05/05 00:50:01;;;;;;;;;;;11.20;99.90;;;;;;5008996;28;20416;-71
2022/05/05 00:52:32;;;;;;;;;;;11.20;99.90;;;;;;5004184;28;19936;-72
2022/05/05 00:55:04;;;;;;;;;;;11.10;99.90;;;;;;5007869;28;20449;-72
2022/05/05 00:57:37;;;;;;;;;;;11.10;99.90;;;;;;5011473;28;19925;-72
2022/05/05 01:00:09;;;;;;;;;;;11.10;99.90;;;;;;4995607;28;19929;-72
2022/05/05 01:02:41;;;;;;;;;;;11.10;99.90;;;;;;5005261;28;20485;-72
2022/05/05 01:05:12;;;;;;;;;;;11.10;99.90;;;;;;5010544;28;19929;-72
2022/05/05 01:07:44;;;;;;;;;;;11.10;99.90;;;;;;5009510;28;19926;-72
2022/05/05 01:10:16;;;;;;;;;;;11.10;99.90;;;;;;5011380;28;19925;-72
2022/05/05 01:12:48;;;;;;;;;;;11.00;99.90;;;;;;5009321;28;19929;-72
2022/05/05 01:15:20;;;;;;;;;;;11.00;99.90;;;;;;5009080;28;19930;-72
2022/05/05 01:17:51;;;;;;;;;;;10.90;99.90;;;;;;4993016;28;20293;-72
2022/05/05 01:20:23;;;;;;;;;;;10.90;99.90;;;;;;4992173;28;20313;-72
2022/05/05 01:22:54;;;;;;;;;;;11.00;99.90;;;;;;4991590;28;19925;-72
2022/05/05 01:28:11;;;;;;;;;;;11.00;99.90;;;;;;5024445;28;19929;-72
2022/05/05 01:30:44;;;;;;;;;;;10.90;99.90;;;;;;5006431;28;19936;-72
2022/05/05 01:33:17;;;;;;;;;;;10.80;99.90;;;;;;5007325;28;19925;-72
2022/05/05 01:35:44;;;;;;;;;;;10.80;99.90;;;;;;5006622;28;19929;-72
2022/05/05 01:38:20;;;;;;;;;;;10.80;99.90;;;;;;5008768;28;19932;-72
2022/05/05 01:40:52;;;;;;;;;;;10.70;99.90;;;;;;5011059;28;20582;-72
2022/05/05 01:43:23;;;;;;;;;;;10.70;99.90;;;;;;5006295;28;19935;-72
2022/05/05 01:45:55;;;;;;;;;;;10.60;99.90;;;;;;5007794;28;20313;-72
2022/05/05 01:48:27;;;;;;;;;;;10.60;99.90;;;;;;5007277;28;19933;-71
2022/05/05 01:50:59;;;;;;;;;;;10.50;99.90;;;;;;5006522;28;19930;-72
2022/05/05 01:53:36;;;;;;;;;;;10.50;99.90;;;;;;5005715;28;19931;-72
2022/05/05 01:56:11;;;;;;;;;;;10.40;99.90;;;;;;5007236;28;19933;-72
2022/05/05 01:58:43;;;;;;;;;;;10.40;99.90;;;;;;5007396;28;19930;-72
2022/05/05 02:01:14;;;;;;;;;;;10.40;99.90;;;;;;5008754;28;19930;-72
2022/05/05 02:03:46;;;;;;;;;;;10.40;99.90;;;;;;5006963;28;19926;-72
2022/05/05 02:06:17;;;;;;;;;;;10.40;99.90;;;;;;5009857;28;19926;-72
2022/05/05 02:08:50;;;;;;;;;;;10.30;99.90;;;;;;5004795;28;19933;-72
2022/05/05 02:11:16;;;;;;;;;;;10.40;99.90;;;;;;5010474;28;20429;-72
2022/05/05 02:13:48;;;;;;;;;;;10.30;99.90;;;;;;5005645;28;19934;-72
2022/05/05 02:16:20;;;;;;;;;;;10.30;99.90;;;;;;5006966;28;20434;-72
2022/05/05 02:18:51;;;;;;;;;;;10.20;99.90;;;;;;5010497;28;19930;-72
2022/05/05 02:21:18;;;;;;;;;;;10.20;99.90;;;;;;5006018;28;19930;-72
2022/05/05 02:23:49;;;;;;;;;;;10.20;99.90;;;;;;5005621;28;19929;-72
2022/05/05 02:26:21;;;;;;;;;;;10.20;99.90;;;;;;5008352;28;19931;-72
2022/05/05 02:28:49;;;;;;;;;;;10.20;99.90;;;;;;5005954;28;19937;-72
2022/05/05 02:31:21;;;;;;;;;;;10.20;99.90;;;;;;5007906;28;19926;-72
2022/05/05 02:33:52;;;;;;;;;;;10.10;99.90;;;;;;5004959;28;19948;-72
2022/05/05 02:39:14;;;;;;;;;;;10.20;99.90;;;;;;5020779;28;19926;-72
2022/05/05 02:41:46;;;;;;;;;;;10.20;99.90;;;;;;5004325;28;19925;-72
2022/05/05 02:44:18;;;;;;;;;;;10.20;99.90;;;;;;5002467;28;19926;-72
2022/05/05 02:46:49;;;;;;;;;;;10.10;99.90;;;;;;5008012;28;19926;-72
2022/05/05 02:49:21;;;;;;;;;;;10.10;99.90;;;;;;5002663;28;19925;-71
2022/05/05 02:51:53;;;;;;;;;;;10.10;99.90;;;;;;5003019;28;19931;-72
2022/05/05 02:57:09;;;;;;;;;;;10.20;99.90;;;;;;5009074;28;19929;-72
2022/05/05 02:59:36;;;;;;;;;;;10.10;99.90;;;;;;5010216;28;20301;-72
2022/05/05 03:02:08;;;;;;;;;;;10.20;99.90;;;;;;5003962;28;20421;-72
2022/05/05 03:04:40;;;;;;;;;;;10.10;99.90;;;;;;5001702;28;20052;-72
2022/05/05 03:07:11;;;;;;;;;;;10.10;99.90;;;;;;5007117;28;19926;-72
2022/05/05 03:09:43;;;;;;;;;;;10.10;99.90;;;;;;5002749;28;20298;-72
2022/05/05 03:12:15;;;;;;;;;;;10.10;99.90;;;;;;5005201;28;19937;-72
2022/05/05 03:14:47;;;;;;;;;;;10.10;99.90;;;;;;5004913;28;19929;-72
2022/05/05 03:17:18;;;;;;;;;;;10.10;99.90;;;;;;5007732;28;19930;-72
2022/05/05 03:19:50;;;;;;;;;;;10.20;99.90;;;;;;5004682;28;19935;-72
2022/05/05 03:22:22;;;;;;;;;;;10.20;99.90;;;;;;5008535;28;20357;-72
2022/05/05 03:24:53;;;;;;;;;;;10.10;99.90;;;;;;5006873;28;20403;-72
2022/05/05 03:27:25;;;;;;;;;;;10.10;99.90;;;;;;5011228;28;19930;-72
2022/05/05 03:29:56;;;;;;;;;;;10.00;99.90;;;;;;5006698;28;19925;-73
2022/05/05 03:32:28;;;;;;;;;;;10.00;99.90;;;;;;5003702;28;19929;-72
2022/05/05 03:34:55;;;;;;;;;;;10.00;99.90;;;;;;4989708;28;19929;-72
2022/05/05 03:37:27;;;;;;;;;;;10.00;99.90;;;;;;5006898;28;19972;-72
2022/05/05 03:39:59;;;;;;;;;;;10.00;99.90;;;;;;5002511;28;19930;-72
2022/05/05 03:42:30;;;;;;;;;;;10.00;99.90;;;;;;5002281;28;19926;-72
2022/05/05 03:45:02;;;;;;;;;;;10.00;99.90;;;;;;5000857;28;19936;-72
2022/05/05 03:47:34;;;;;;;;;;;10.10;99.90;;;;;;5008602;28;19925;-72
2022/05/05 03:50:06;;;;;;;;;;;10.10;99.90;;;;;;5004613;28;19929;-72
2022/05/05 03:52:37;;;;;;;;;;;10.10;99.90;;;;;;4996176;28;19971;-72
2022/05/05 03:55:04;;;;;;;;;;;10.10;99.90;;;;;;5005700;28;19936;-72
2022/05/05 03:57:36;;;;;;;;;;;10.10;99.90;;;;;;5001041;28;20366;-72
2022/05/05 04:00:04;;;;;;;;;;;10.20;99.90;;;;;;5003195;28;19937;-72
2022/05/05 04:02:37;;;;;;;;;;;10.20;99.90;;;;;;5001996;28;19988;-72
2022/05/05 04:05:09;;;;;;;;;;;10.20;99.90;;;;;;4988384;28;20406;-72
2022/05/05 04:07:36;;;;;;;;;;;10.20;99.90;;;;;;5009206;28;19995;-72
2022/05/05 04:10:08;;;;;;;;;;;10.20;99.90;;;;;;4992409;28;20334;-72
2022/05/05 04:12:39;;;;;;;;;;;10.20;99.90;;;;;;4999251;28;19929;-73
2022/05/05 04:15:11;;;;;;;;;;;10.20;99.90;;;;;;5004916;28;20370;-73
2022/05/05 04:17:43;;;;;;;;;;;10.20;99.90;;;;;;4997347;28;19963;-73
2022/05/05 04:20:10;;;;;;;;;;;10.20;99.90;;;;;;5005542;28;19930;-72
2022/05/05 04:22:41;;;;;;;;;;;10.30;99.90;;;;;;5004475;28;19929;-72
2022/05/05 04:25:13;;;;;;;;;;;10.30;99.90;;;;;;5006977;28;19932;-72
2022/05/05 04:27:45;;;;;;;;;;;10.40;99.90;;;;;;5006884;28;19926;-72
2022/05/05 04:30:17;;;;;;;;;;;10.40;99.90;;;;;;5006672;28;20295;-72
2022/05/05 04:32:44;;;;;;;;;;;10.40;99.90;;;;;;5018545;28;20382;-73
2022/05/05 04:35:16;;;;;;;;;;;10.50;99.90;;;;;;4989662;28;19933;-72
2022/05/05 04:37:48;;;;;;;;;;;10.50;99.90;;;;;;5008690;28;19929;-72
2022/05/05 04:40:19;;;;;;;;;;;10.50;99.90;;;;;;5010151;28;19945;-73
2022/05/05 04:42:46;;;;;;;;;;;10.50;99.90;;;;;;5010509;28;19925;-73
2022/05/05 04:45:17;;;;;;;;;;;10.50;99.90;;;;;;5011844;28;19932;-72
2022/05/05 04:47:49;;;;;;;;;;;10.50;99.90;;;;;;5010238;28;19926;-72
2022/05/05 04:50:21;;;;;;;;;;;10.50;99.90;;;;;;5010171;28;19933;-72
2022/05/05 04:52:52;;;;;;;;;;;10.50;99.90;;;;;;5006045;28;19933;-72
2022/05/05 04:55:24;;;;;;;;;;;10.40;99.90;;;;;;5008704;28;19925;-72
2022/05/05 04:57:56;;;;;;;;;;;10.30;99.90;;;;;;5008807;28;19930;-73
2022/05/05 05:00:27;;;;;;;;;;;10.30;99.90;;;;;;5008959;28;19931;-72
2022/05/05 05:02:59;;;;;;;;;;;10.20;99.90;;;;;;5004797;28;20567;-72
2022/05/05 05:05:30;;;;;;;;;;;10.30;99.90;;;;;;4995391;28;19925;-72
2022/05/05 05:08:02;;;;;;;;;;;10.30;99.90;;;;;;5005522;28;19936;-72
2022/05/05 05:10:29;;;;;;;;;;;10.30;99.90;;;;;;5007457;28;19943;-72
2022/05/05 05:13:01;;;;;;;;;;;10.30;99.90;;;;;;5007063;28;19948;-72
2022/05/05 05:15:32;;;;;;;;;;;10.40;99.90;;;;;;5011065;28;19939;-72
2022/05/05 05:18:04;;;;;;;;;;;10.40;99.90;;;;;;5011629;28;19940;-72
2022/05/05 05:20:35;;;;;;;;;;;10.50;99.90;;;;;;5009545;28;19933;-72
2022/05/05 05:23:07;;;;;;;;;;;10.50;99.90;;;;;;5009715;28;19926;-72
2022/05/05 05:25:34;;;;;;;;;;;10.50;99.90;;;;;;5008944;28;19925;-72
2022/05/05 05:28:01;;;;;;;;;;;10.50;99.90;;;;;;5011775;28;19929;-72
2022/05/05 05:30:33;;;;;;;;;;;10.50;99.90;;;;;;5007189;28;20052;-72
2022/05/05 05:33:04;;;;;;;;;;;10.60;99.90;;;;;;4991934;28;19941;-72
2022/05/05 05:35:36;;;;;;;;;;;10.60;99.90;;;;;;5009766;28;19975;-72
2022/05/05 05:38:08;;;;;;;;;;;10.60;99.90;;;;;;5011080;28;19929;-72
2022/05/05 05:40:40;;;;;;;;;;;10.60;99.90;;;;;;5011730;28;20016;-72
2022/05/05 05:43:12;;;;;;;;;;;10.70;99.90;;;;;;5007333;28;20608;-72
2022/05/05 05:45:38;;;;;;;;;;;10.70;99.90;;;;;;5009328;28;19925;-72
2022/05/05 05:48:06;;;;;;;;;;;10.70;99.90;;;;;;5010327;28;19932;-72
2022/05/05 05:50:37;;;;;;;;;;;10.70;99.90;;;;;;5011204;28;19965;-72
2022/05/05 05:53:09;;;;;;;;;;;10.70;99.90;;;;;;5008416;28;20378;-73
2022/05/05 05:55:35;;;;;;;;;;;10.70;99.90;;;;;;5001812;28;19929;-72
2022/05/05 05:58:07;;;;;;;;;;;10.70;99.90;;;;;;5009767;28;19932;-72
2022/05/05 06:00:39;;;;;;;;;;;10.70;99.90;;;;;;5006700;28;19930;-72
2022/05/05 06:04:08;;;;;;;;;;;10.70;99.90;;;;;;4995523;28;19980;-72
2022/05/05 06:06:07;;;;;;;;;;;10.70;99.90;;;;;;5000681;28;19932;-72
2022/05/05 06:08:38;;;;;;;;;;;10.80;99.90;;;;;;5006273;28;19937;-72
2022/05/05 06:11:11;;;;;;;;;;;10.90;99.90;;;;;;5006167;28;19929;-72
2022/05/05 06:13:43;;;;;;;;;;;10.90;99.90;;;;;;5003619;28;19932;-72
2022/05/05 06:16:14;;;;;;;;;;;11.00;99.90;;;;;;5003611;28;19993;-72
2022/05/05 06:18:46;;;;;;;;;;;11.00;99.90;;;;;;4996006;28;19925;-72
2022/05/05 06:21:17;;;;;;;;;;;11.10;99.90;;;;;;5000517;28;19936;-72
2022/05/05 06:23:49;;;;;;;;;;;11.20;99.90;;;;;;4983184;28;19925;-73
2022/05/05 06:26:23;;;;;;;;;;;11.20;99.90;;;;;;5013346;28;19929;-73
2022/05/05 06:28:55;;;;;;;;;;;11.30;99.90;;;;;;4980692;28;20009;-72
2022/05/05 06:31:27;;;;;;;;;;;11.40;99.90;;;;;;5009002;28;19929;-73
2022/05/05 06:34:00;;;;;;;;;;;11.50;99.90;;;;;;4990694;28;21351;-72
2022/05/05 06:36:32;;;;;;;;;;;11.50;99.90;;;;;;5006205;28;19952;-72
2022/05/05 06:38:59;;;;;;;;;;;11.60;99.90;;;;;;5008044;28;19952;-73
2022/05/05 06:41:30;;;;;;;;;;;11.70;99.90;;;;;;4998828;28;20337;-73
2022/05/05 06:44:02;;;;;;;;;;;11.90;99.90;;;;;;4988601;28;20013;-73
2022/05/05 06:46:33;;;;;;;;;;;12.00;99.90;;;;;;5008727;28;19933;-72
2022/05/05 06:49:00;;;;;;;;;;;12.10;99.90;;;;;;4993247;28;20415;-73
2022/05/05 06:51:31;;;;;;;;;;;12.30;99.90;;;;;;4992780;28;19926;-73
2022/05/05 06:54:03;;;;;;;;;;;12.30;99.90;;;;;;5007212;28;19936;-73
2022/05/05 06:56:35;;;;;;;;;;;12.40;99.90;;;;;;4994788;28;19932;-73
2022/05/05 06:59:07;;;;;;;;;;;12.40;99.90;;;;;;5011036;28;20012;-73
2022/05/05 07:01:53;;;;;;;;;;;12.40;99.90;;;;;;5011550;28;20353;-73
2022/05/05 07:07:17;;;;;;;;;;;12.40;99.90;;;;;;5007754;28;19930;-73
2022/05/05 07:12:35;;;;;;;;;;;12.50;99.90;;;;;;4988662;28;19926;-71
2022/05/05 07:15:01;;;;;;;;;;;12.50;99.90;;;;;;4982795;28;19933;-73
2022/05/05 07:17:33;;;;;;;;;;;12.50;99.90;;;;;;5003537;28;19929;-72
2022/05/05 07:20:00;;;;;;;;;;;12.40;99.90;;;;;;5009352;28;20021;-73
2022/05/05 07:22:26;;;;;;;;;;;12.50;99.90;;;;;;4994711;28;19930;-73
2022/05/05 07:24:53;;;;;;;;;;;12.50;99.90;;;;;;4990243;28;19925;-73
2022/05/05 07:27:19;;;;;;;;;;;12.50;99.90;;;;;;5000918;28;19953;-73
2022/05/05 07:29:51;;;;;;;;;;;12.50;99.90;;;;;;5011019;28;19929;-73
2022/05/05 07:32:23;;;;;;;;;;;12.50;99.90;;;;;;4997972;28;19961;-72
2022/05/05 07:34:54;;;;;;;;;;;12.50;99.90;;;;;;5002329;28;19929;-73
2022/05/05 07:37:26;;;;;;;;;;;12.60;99.90;;;;;;5000073;28;19933;-73
2022/05/05 07:39:52;;;;;;;;;;;12.60;99.90;;;;;;4988634;28;20513;-72
2022/05/05 07:42:24;;;;;;;;;;;12.60;99.90;;;;;;5005070;28;19932;-72
2022/05/05 07:44:56;;;;;;;;;;;12.70;99.90;;;;;;5008153;28;19925;-73
2022/05/05 07:47:27;;;;;;;;;;;12.70;99.90;;;;;;4994669;28;20310;-73
2022/05/05 07:50:00;;;;;;;;;;;12.80;99.90;;;;;;5004886;28;19929;-72
2022/05/05 07:52:42;;;;;;;;;;;12.80;99.90;;;;;;4994177;28;19945;-73
2022/05/05 07:55:11;;;;;;;;;;;12.90;99.90;;;;;;5011191;28;19948;-73
2022/05/05 07:57:44;;;;;;;;;;;12.90;99.90;;;;;;5015102;28;19925;-72
2022/05/05 08:00:15;;;;;;;;;;;12.90;99.90;;;;;;4997835;28;19937;-73
2022/05/05 08:02:42;;;;;;;;;;;12.90;99.90;;;;;;5007273;28;19940;-73
2022/05/05 08:05:11;;;;;;;;;;;13.00;99.90;;;;;;5012206;28;19945;-72
2022/05/05 08:07:48;;;;;;;;;;;13.00;99.90;;;;;;4985468;28;19926;-73
2022/05/05 08:10:24;;;;;;;;;;;13.10;99.90;;;;;;4998955;28;20306;-73
2022/05/05 08:12:57;;;;;;;;;;;13.10;99.90;;;;;;5003215;28;20382;-72
2022/05/05 08:15:23;;;;;;;;;;;13.30;99.90;;;;;;5012258;28;19926;-73
2022/05/05 08:17:50;;;;;;;;;;;13.30;99.90;;;;;;4999565;28;19932;-73
2022/05/05 08:20:22;;;;;;;;;;;13.50;99.90;;;;;;4999556;28;19933;-72
2022/05/05 08:22:53;;;;;;;;;;;13.50;99.90;;;;;;5012246;28;20082;-73
2022/05/05 08:28:31;;;;;;;;;;;13.60;99.90;;;;;;5012745;28;19929;-73
2022/05/05 08:31:03;;;;;;;;;;;13.60;99.90;;;;;;5010007;28;19929;-72
2022/05/05 08:33:35;;;;;;;;;;;13.80;99.90;;;;;;5010121;28;20017;-73
2022/05/05 08:36:02;;;;;;;;;;;13.90;99.90;;;;;;5011650;28;19933;-73
2022/05/05 08:38:36;;;;;;;;;;;13.90;99.90;;;;;;5012286;28;19925;-73
2022/05/05 08:41:04;;;;;;;;;;;14.00;99.90;;;;;;5013096;28;20413;-73
2022/05/05 08:43:30;;;;;;;;;;;14.10;99.90;;;;;;4996640;28;19936;-73
2022/05/05 08:46:03;;;;;;;;;;;14.10;99.90;;;;;;5010550;28;19933;-72
2022/05/05 08:48:31;;;;;;;;;;;14.20;99.90;;;;;;5012867;28;19932;-73
2022/05/05 08:51:04;;;;;;;;;;;14.30;99.90;;;;;;5014382;28;19941;-73
2022/05/05 08:53:37;;;;;;;;;;;14.40;99.90;;;;;;5009082;28;19929;-73
2022/05/05 08:56:08;;;;;;;;;;;14.50;99.90;;;;;;5009911;28;20619;-73
2022/05/05 08:58:40;;;;;;;;;;;14.60;99.90;;;;;;5012870;28;19937;-73
2022/05/05 09:01:07;;;;;;;;;;;14.70;99.90;;;;;;5012225;28;19933;-73
2022/05/05 09:03:39;;;;;;;;;;;14.70;99.90;;;;;;4996085;28;19929;-73
2022/05/05 09:06:05;;;;;;;;;;;14.80;99.90;;;;;;5011992;28;19925;-73
2022/05/05 09:08:37;;;;;;;;;;;14.90;99.90;;;;;;5009162;28;19932;-73
2022/05/05 09:11:13;;;;;;;;;;;15.10;99.90;;;;;;5000209;28;19929;-73
2022/05/05 09:13:45;;;;;;;;;;;15.20;99.90;;;;;;4987927;28;19929;-73
2022/05/05 09:16:23;;;;;;;;;;;15.20;99.90;;;;;;5007817;28;19929;-72
2022/05/05 09:18:56;;;;;;;;;;;15.30;99.90;;;;;;5009427;28;19929;-72
2022/05/05 09:21:32;;;;;;;;;;;15.50;99.90;;;;;;5002402;28;20386;-73
2022/05/05 09:26:49;;;;;;;;;;;15.80;99.90;;;;;;5011295;28;19929;-73
2022/05/05 09:29:21;;;;;;;;;;;15.90;99.90;;;;;;5009493;28;19926;-73
2022/05/05 09:31:52;;;;;;;;;;;15.90;99.90;;;;;;5006433;28;19925;-73
2022/05/05 09:34:24;;;;;;;;;;;16.00;99.90;;;;;;5006799;28;20313;-73
2022/05/05 09:36:51;;;;;;;;;;;16.10;99.90;;;;;;5005279;28;19932;-73
2022/05/05 09:39:22;;;;;;;;;;;16.10;99.90;;;;;;5007014;28;19930;-73
2022/05/05 09:41:54;;;;;;;;;;;16.30;99.90;;;;;;5001790;28;20390;-73
2022/05/05 09:44:26;;;;;;;;;;;16.30;99.90;;;;;;5004255;28;20321;-73
2022/05/05 09:47:01;;;;;;;;;;;16.40;99.90;;;;;;4991250;28;19926;-73
2022/05/05 09:49:32;;;;;;;;;;;16.30;99.90;;;;;;5005685;28;19930;-73
2022/05/05 09:57:41;;;;;;;;;;;16.20;99.90;;;;;;5003628;28;19937;-73
2022/05/05 10:05:45;;;;;;;;;;;16.80;99.90;;;;;;5005465;28;19980;-73
2022/05/05 10:08:23;;;;;;;;;;;16.90;99.90;;;;;;4991643;28;19925;-73
2022/05/05 10:10:55;;;;;;;;;;;16.90;99.90;;;;;;5007212;28;19925;-72
2022/05/05 10:13:27;;;;;;;;;;;16.90;99.90;;;;;;4993698;28;19941;-73
2022/05/05 10:16:00;;;;;;;;;;;16.90;99.90;;;;;;5008282;28;19926;-72
2022/05/05 10:18:38;;;;;;;;;;;17.00;99.90;;;;;;4999648;28;19926;-72
2022/05/05 10:21:09;;;;;;;;;;;17.10;99.90;;;;;;5006888;28;20020;-72
2022/05/05 10:24:10;;;;;;;;;;;17.20;99.90;;;;;;4990880;28;19930;-72
2022/05/05 10:26:44;;;;;;;;;;;17.20;99.90;;;;;;5004573;28;19933;-73
2022/05/05 10:29:31;;;;;;;;;;;17.30;99.90;;;;;;5014254;28;19930;-72
2022/05/05 10:32:04;;;;;;;;;;;17.20;99.90;;;;;;4988412;28;19926;-73
2022/05/05 10:34:37;;;;;;;;;;;17.30;99.90;;;;;;5001507;28;20382;-73
2022/05/05 10:37:10;;;;;;;;;;;17.30;99.90;;;;;;5019241;28;19929;-72
2022/05/05 10:39:50;;;;;;;;;;;17.30;99.90;;;;;;4994125;28;19933;-73
2022/05/05 10:42:33;;;;;;;;;;;17.40;99.90;;;;;;5001865;28;20012;-72
2022/05/05 10:45:05;;;;;;;;;;;17.50;99.90;;;;;;5015233;28;19937;-73
2022/05/05 10:47:57;;;;;;;;;;;17.50;99.90;;;;;;5001120;28;20453;-72
2022/05/05 10:53:27;;;;;;;;;;;17.70;99.90;;;;;;4998250;28;20002;-73
2022/05/05 10:56:00;;;;;;;;;;;17.80;99.90;;;;;;5008773;28;19925;-73
2022/05/05 10:58:50;;;;;;;;;;;18.00;99.90;;;;;;5007254;28;19933;-73
2022/05/05 11:01:22;;;;;;;;;;;18.10;99.90;;;;;;5005571;28;19926;-73
2022/05/05 11:04:07;;;;;;;;;;;18.30;99.90;;;;;;5007746;28;19937;-73
2022/05/05 11:06:36;;;;;;;;;;;18.40;99.90;;;;;;4984127;28;20675;-73
2022/05/05 11:09:08;;;;;;;;;;;18.50;99.90;;;;;;4986681;28;20029;-73
2022/05/05 11:11:41;;;;;;;;;;;18.60;99.90;;;;;;4998803;28;19932;-72
2022/05/05 11:21:32;;;;;;;;;;;18.70;99.90;;;;;;5004366;28;19925;-73
2022/05/05 11:23:27;;;;;;;;;;;19.10;99.90;;;;;;4981936;28;19952;-72
2022/05/05 11:26:00;;;;;;;;;;;19.30;99.90;;;;;;4983889;28;20407;-73
2022/05/05 11:28:31;;;;;;;;;;;19.40;99.90;;;;;;4971027;28;20568;-73
2022/05/05 11:31:03;;;;;;;;;;;19.40;99.90;;;;;;4997738;28;19929;-73
2022/05/05 11:33:35;;;;;;;;;;;19.40;99.90;;;;;;5000474;28;19925;-73
2022/05/05 11:36:07;;;;;;;;;;;19.40;99.90;;;;;;5005886;28;20386;-73
2022/05/05 11:38:40;;;;;;;;;;;19.40;99.90;;;;;;5002819;28;19948;-72
2022/05/05 11:41:16;;;;;;;;;;;19.40;99.90;;;;;;5014243;28;19929;-73
2022/05/05 11:46:33;;;;;;;;;;;19.20;99.90;;;;;;5008370;28;19929;-73
2022/05/05 11:49:00;;;;;;;;;;;19.00;99.90;;;;;;5009696;28;19933;-73
2022/05/05 11:51:32;;;;;;;;;;;19.00;99.90;;;;;;4998524;28;19933;-73
2022/05/05 11:54:08;;;;;;;;;;;19.10;99.90;;;;;;4998398;28;19968;-73
2022/05/05 11:56:36;;;;;;;;;;;19.20;99.90;;;;;;5004230;28;19925;-72
2022/05/05 12:02:12;;;;;;;;;;;19.30;99.90;;;;;;5003150;28;19929;-73
2022/05/05 12:05:03;;;;;;;;;;;19.30;99.90;;;;;;5015535;28;19930;-73
2022/05/05 12:07:36;;;;;;;;;;;19.40;99.90;;;;;;5000963;28;19925;-73
2022/05/05 12:10:08;;;;;;;;;;;19.50;99.90;;;;;;4990180;28;19926;-75
2022/05/05 12:12:38;;;;;;;;;;;19.50;99.90;;;;;;5006573;28;19936;-73
2022/05/05 12:15:10;;;;;;;;;;;19.60;99.90;;;;;;5003305;28;19934;-73
2022/05/05 12:17:49;;;;;;;;;;;19.70;99.90;;;;;;4995353;28;20416;-73
2022/05/05 12:20:21;;;;;;;;;;;20.00;99.90;;;;;;5013001;28;19925;-73
2022/05/05 12:22:57;;;;;;;;;;;20.00;99.90;;;;;;4996032;28;20305;-73
2022/05/05 12:25:29;;;;;;;;;;;20.00;99.90;;;;;;5005390;28;19926;-73
2022/05/05 12:28:05;;;;;;;;;;;20.20;99.90;;;;;;5007047;28;19934;-73
2022/05/05 12:30:43;;;;;;;;;;;20.40;99.90;;;;;;5004579;28;20066;-73
2022/05/05 12:33:17;;;;;;;;;;;20.40;99.90;;;;;;5001879;28;19929;-73
2022/05/05 12:35:50;;;;;;;;;;;20.50;99.90;;;;;;5000828;28;20029;-73
2022/05/05 12:38:22;;;;;;;;;;;20.60;99.90;;;;;;4993993;28;19936;-72
2022/05/05 12:41:05;;;;;;;;;;;20.60;99.90;;;;;;5017810;28;19930;-73
2022/05/05 12:43:39;;;;;;;;;;;20.80;99.90;;;;;;5008021;28;19930;-72
2022/05/05 12:46:14;;;;;;;;;;;20.90;99.90;;;;;;4996013;28;19936;-72
2022/05/05 12:48:41;;;;;;;;;;;20.70;99.90;;;;;;4996763;28;19925;-73
2022/05/05 12:51:14;;;;;;;;;;;20.50;99.90;;;;;;5008227;28;19926;-72
2022/05/05 13:02:07;;;;;;;;;;;20.10;99.90;;;;;;5007024;28;20464;-73
2022/05/05 13:04:39;;;;;;;;;;;20.00;99.90;;;;;;5005060;28;19993;-73
2022/05/05 13:07:07;;;;;;;;;;;19.90;99.90;;;;;;4991643;28;19926;-73
2022/05/05 13:09:39;;;;;;;;;;;20.00;99.90;;;;;;5010815;28;20390;-73
2022/05/05 13:12:11;;;;;;;;;;;20.10;99.90;;;;;;5008402;28;19933;-72
2022/05/05 13:14:42;;;;;;;;;;;20.30;99.90;;;;;;5007909;28;19925;-73
2022/05/05 13:17:14;;;;;;;;;;;20.40;99.90;;;;;;5006918;28;19937;-73
2022/05/05 13:19:46;;;;;;;;;;;20.50;99.90;;;;;;5004847;28;19929;-72
2022/05/05 13:22:17;;;;;;;;;;;20.60;99.90;;;;;;5006299;28;19952;-72
2022/05/05 13:24:50;;;;;;;;;;;20.60;99.90;;;;;;4991484;28;19973;-73
2022/05/05 13:27:21;;;;;;;;;;;20.70;99.90;;;;;;4993915;28;20019;-72
2022/05/05 13:29:53;;;;;;;;;;;20.70;99.90;;;;;;5009283;28;19933;-74
2022/05/05 13:32:24;;;;;;;;;;;20.80;99.90;;;;;;5010434;28;20591;-74
2022/05/05 13:34:56;;;;;;;;;;;20.90;99.90;;;;;;5006080;28;20715;-73
2022/05/05 13:37:28;;;;;;;;;;;20.90;99.90;;;;;;4994763;28;19929;-74
2022/05/05 13:39:54;;;;;;;;;;;20.80;99.90;;;;;;5002269;28;19929;-73
2022/05/05 13:42:26;;;;;;;;;;;20.60;99.90;;;;;;4999890;28;19926;-73
2022/05/05 13:44:58;;;;;;;;;;;20.40;99.90;;;;;;5000068;28;19957;-73
2022/05/05 13:47:24;;;;;;;;;;;20.30;99.90;;;;;;5008217;28;20060;-74
2022/05/05 13:49:56;;;;;;;;;;;20.40;99.90;;;;;;5003214;28;19930;-74
2022/05/05 13:52:27;;;;;;;;;;;20.40;99.90;;;;;;5003841;28;19930;-73
2022/05/05 13:55:00;;;;;;;;;;;20.50;99.90;;;;;;4991230;28;20318;-74
2022/05/05 13:57:31;;;;;;;;;;;20.70;99.90;;;;;;5005576;28;19955;-73
2022/05/05 13:59:58;;;;;;;;;;;20.80;99.90;;;;;;4988123;28;20368;-73
2022/05/05 14:02:25;;;;;;;;;;;20.80;99.90;;;;;;5002377;28;19941;-73
2022/05/05 14:04:52;;;;;;;;;;;21.00;99.90;;;;;;5009575;28;19960;-74
2022/05/05 14:13:01;;;;;;;;;;;20.90;99.90;;;;;;5000714;28;20021;-73
2022/05/05 14:15:28;;;;;;;;;;;20.70;99.70;;;;;;4995836;28;19932;-73
2022/05/05 14:18:00;;;;;;;;;;;20.60;99.90;;;;;;4982774;28;19930;-73
2022/05/05 14:20:32;;;;;;;;;;;20.60;99.90;;;;;;5009226;28;19937;-73
2022/05/05 14:22:58;;;;;;;;;;;20.60;99.90;;;;;;5006730;28;19933;-73
2022/05/05 14:25:30;;;;;;;;;;;20.60;99.90;;;;;;5010250;28;19932;-73
2022/05/05 14:28:02;;;;;;;;;;;20.70;99.20;;;;;;5010450;28;20414;-73
2022/05/05 14:30:28;;;;;;;;;;;20.60;99.90;;;;;;5003066;28;19925;-74
2022/05/05 14:33:00;;;;;;;;;;;20.60;99.90;;;;;;5005887;28;19926;-73
2022/05/05 14:35:31;;;;;;;;;;;20.50;99.90;;;;;;4992800;28;22055;-73
2022/05/05 14:38:04;;;;;;;;;;;20.50;99.90;;;;;;5022783;28;19925;-73
2022/05/05 14:40:35;;;;;;;;;;;20.40;99.90;;;;;;4994871;28;19949;-73
2022/05/05 14:43:07;;;;;;;;;;;20.30;99.90;;;;;;5003369;28;19926;-73
2022/05/05 14:45:39;;;;;;;;;;;20.30;99.90;;;;;;5005542;28;19925;-73
2022/05/05 14:48:11;;;;;;;;;;;20.30;99.90;;;;;;4995274;28;19929;-73
2022/05/05 14:50:42;;;;;;;;;;;20.30;99.90;;;;;;5000649;28;19929;-74
2022/05/05 14:53:09;;;;;;;;;;;20.20;99.90;;;;;;4993817;28;19933;-73
2022/05/05 14:55:40;;;;;;;;;;;20.00;99.90;;;;;;4997542;28;19925;-73
2022/05/05 14:58:12;;;;;;;;;;;20.00;99.90;;;;;;5011166;28;19925;-73
2022/05/05 15:00:39;;;;;;;;;;;20.00;99.90;;;;;;5000897;28;19930;-73
2022/05/05 15:03:06;;;;;;;;;;;19.90;99.90;;;;;;5002279;28;19937;-74
2022/05/05 15:05:37;;;;;;;;;;;19.90;99.90;;;;;;4986874;28;19965;-73
2022/05/05 15:08:09;;;;;;;;;;;19.90;99.90;;;;;;4999083;28;19926;-73
2022/05/05 15:10:41;;;;;;;;;;;19.80;99.90;;;;;;4998584;28;19926;-73
2022/05/05 15:13:12;;;;;;;;;;;19.80;99.90;;;;;;5005326;28;19925;-74
2022/05/05 15:15:44;;;;;;;;;;;19.70;99.90;;;;;;5009993;28;20345;-73
2022/05/05 15:18:16;;;;;;;;;;;19.60;99.90;;;;;;5004199;28;19968;-73
2022/05/05 15:20:49;;;;;;;;;;;19.60;99.90;;;;;;5010956;28;19972;-73
2022/05/05 15:23:16;;;;;;;;;;;19.50;99.90;;;;;;5004045;28;19925;-73
2022/05/05 15:25:42;;;;;;;;;;;19.40;99.90;;;;;;4988907;28;20428;-73
2022/05/05 15:28:14;;;;;;;;;;;19.40;99.90;;;;;;4998651;28;19926;-73
2022/05/05 15:30:40;;;;;;;;;;;19.30;99.90;;;;;;4988465;28;19931;-73
2022/05/05 15:33:12;;;;;;;;;;;19.30;99.90;;;;;;5000034;28;19926;-73
2022/05/05 15:35:44;;;;;;;;;;;19.20;99.90;;;;;;5001025;28;20760;-72
2022/05/05 15:38:11;;;;;;;;;;;19.10;99.90;;;;;;4984559;28;19926;-72
2022/05/05 15:40:42;;;;;;;;;;;19.10;99.90;;;;;;4999870;28;20306;-74
2022/05/05 15:43:14;;;;;;;;;;;19.10;99.90;;;;;;4985576;28;19932;-73
2022/05/05 15:45:47;;;;;;;;;;;19.00;99.90;;;;;;4995232;28;20001;-73